createdAt,value
2023-02-23T00:02:41.454Z,3.30
2023-02-23T00:06:04.032Z,3.20
2023-02-23T00:09:35.375Z,2.90
2023-02-23T00:13:05.218Z,3.40
2023-02-23T00:16:29.610Z,4.80
2023-02-23T00:19:51.457Z,3.10
2023-02-23T00:23:17.252Z,3.50
2023-02-23T00:26:40.095Z,3.40
2023-02-23T00:30:03.686Z,2.90
2023-02-23T00:33:25.486Z,3.00
2023-02-23T00:36:55.033Z,2.60
2023-02-23T00:40:18.425Z,3.30
2023-02-23T00:43:48.032Z,3.40
2023-02-23T00:50:34.925Z,3.00
2023-02-23T00:54:03.722Z,2.50
2023-02-23T00:57:33.782Z,2.40
2023-02-23T01:00:55.657Z,2.60
2023-02-23T01:04:19.574Z,2.60
2023-02-23T01:07:49.270Z,3.00
2023-02-23T01:11:17.341Z,2.70
2023-02-23T01:14:39.410Z,3.50
2023-02-23T01:18:01.237Z,2.80
2023-02-23T01:21:26.058Z,2.80
2023-02-23T01:24:47.852Z,3.10
2023-02-23T01:28:11.187Z,3.10
2023-02-23T01:31:33.115Z,2.60
2023-02-23T01:34:54.949Z,2.40
2023-02-23T01:38:16.733Z,2.70
2023-02-23T01:41:39.257Z,2.80
2023-02-23T01:45:37.829Z,3.40
2023-02-23T01:49:00.242Z,2.60
2023-02-23T01:52:22.017Z,2.60
2023-02-23T01:55:44.326Z,3.70
2023-02-23T01:59:07.519Z,2.70
2023-02-23T02:02:33.470Z,3.10
2023-02-23T02:05:56.902Z,5.40
2023-02-23T02:09:20.562Z,4.40
2023-02-23T02:12:58.961Z,2.90
2023-02-23T02:16:43.615Z,4.20
2023-02-23T02:20:32.900Z,3.10
2023-02-23T02:27:50.465Z,3.30
2023-02-23T02:31:21.062Z,3.10
2023-02-23T02:34:49.501Z,3.30
2023-02-23T02:38:35.445Z,6.20
2023-02-23T02:42:08.929Z,3.00
2023-02-23T02:45:44.957Z,4.50
2023-02-23T02:49:24.242Z,3.50
2023-02-23T02:52:56.352Z,3.60
2023-02-23T02:56:20.317Z,3.00
2023-02-23T03:00:04.476Z,2.70
2023-02-23T03:03:52.628Z,4.50
2023-02-23T03:07:44.442Z,2.50
2023-02-23T03:11:33.370Z,4.40
2023-02-23T03:15:41.852Z,3.60
2023-02-23T03:19:33.836Z,3.50
2023-02-23T03:23:19.377Z,5.20
2023-02-23T03:27:04.744Z,4.50
2023-02-23T03:31:25.788Z,3.90
2023-02-23T03:35:12.472Z,3.80
2023-02-23T03:39:17.553Z,4.70
2023-02-23T03:43:01.083Z,3.40
2023-02-23T03:46:43.087Z,4.30
2023-02-23T03:50:42.177Z,5.00
2023-02-23T03:54:29.841Z,4.20
2023-02-23T03:58:15.192Z,3.90
2023-02-23T04:01:57.662Z,3.40
2023-02-23T04:05:39.382Z,4.10
2023-02-23T04:09:22.326Z,4.40
2023-02-23T04:13:13.869Z,3.70
2023-02-23T04:16:36.035Z,4.40
2023-02-23T04:20:00.368Z,5.00
2023-02-23T04:23:25.834Z,4.30
2023-02-23T04:26:47.717Z,4.30
2023-02-23T04:30:11.968Z,3.50
2023-02-23T04:33:33.826Z,4.10
2023-02-23T04:37:02.712Z,7.80
2023-02-23T04:40:31.581Z,5.30
2023-02-23T04:43:59.162Z,3.90
2023-02-23T04:47:21.063Z,4.80
2023-02-23T04:50:42.889Z,9.30
2023-02-23T04:54:12.380Z,4.00
2023-02-23T04:57:35.349Z,3.80
2023-02-23T05:01:09.934Z,3.60
2023-02-23T05:04:35.395Z,4.00
2023-02-23T05:08:06.131Z,4.40
2023-02-23T05:11:27.961Z,3.50
2023-02-23T05:14:49.794Z,3.50
2023-02-23T05:18:13.159Z,3.90
2023-02-23T05:21:39.091Z,4.00
2023-02-23T05:25:08.848Z,3.20
2023-02-23T05:28:31.151Z,3.20
2023-02-23T05:31:56.055Z,4.60
2023-02-23T05:35:18.098Z,4.60
2023-02-23T05:38:40.973Z,3.80
2023-02-23T05:42:04.076Z,4.10
2023-02-23T05:45:26.114Z,4.70
2023-02-23T05:54:16.253Z,2.60
2023-02-23T05:57:43.681Z,4.10
2023-02-23T06:01:05.520Z,3.00
2023-02-23T06:04:29.455Z,4.30
2023-02-23T06:07:52.445Z,3.50
2023-02-23T06:11:44.653Z,3.40
2023-02-23T06:15:11.825Z,4.10
2023-02-23T06:18:33.840Z,2.90
2023-02-23T06:21:55.668Z,3.40
2023-02-23T06:25:19.895Z,2.70
2023-02-23T06:28:44.502Z,3.40
2023-02-23T06:32:06.469Z,3.10
2023-02-23T06:35:40.717Z,3.30
2023-02-23T06:39:09.165Z,3.20
2023-02-23T06:42:31.129Z,3.40
2023-02-23T06:45:54.356Z,3.50
2023-02-23T06:49:16.723Z,3.80
2023-02-23T06:52:43.987Z,3.60
2023-02-23T06:56:06.368Z,2.90
2023-02-23T06:59:28.187Z,3.20
2023-02-23T07:02:59.012Z,3.90
2023-02-23T07:06:21.035Z,3.10
2023-02-23T07:09:43.039Z,3.40
2023-02-23T07:13:04.846Z,4.30
2023-02-23T07:16:30.272Z,4.30
2023-02-23T07:19:53.786Z,4.30
2023-02-23T07:23:19.520Z,4.00
2023-02-23T07:26:43.803Z,3.30
2023-02-23T07:30:06.304Z,6.70
2023-02-23T07:33:28.075Z,3.90
2023-02-23T07:36:56.406Z,4.90
2023-02-23T07:40:19.462Z,3.00
2023-02-23T07:43:42.468Z,8.60
2023-02-23T07:47:04.321Z,4.40
2023-02-23T07:50:26.998Z,4.80
2023-02-23T07:53:49.593Z,3.70
2023-02-23T07:57:14.300Z,5.10
2023-02-23T08:00:38.981Z,4.40
2023-02-23T08:04:00.969Z,4.50
2023-02-23T08:07:22.987Z,3.60
2023-02-23T08:10:44.813Z,4.00
2023-02-23T08:14:06.710Z,5.10
2023-02-23T08:17:29.294Z,3.60
2023-02-23T08:20:51.420Z,3.60
2023-02-23T08:24:16.206Z,3.80
2023-02-23T08:27:38.986Z,3.30
2023-02-23T08:31:00.925Z,4.10
2023-02-23T08:34:23.436Z,4.10
2023-02-23T08:37:50.820Z,4.70
2023-02-23T08:41:12.772Z,5.70
2023-02-23T08:44:34.683Z,6.30
2023-02-23T08:47:56.773Z,4.60
2023-02-23T08:51:19.416Z,4.40
2023-02-23T08:54:41.556Z,3.90
2023-02-23T08:58:03.413Z,3.90
2023-02-23T09:01:25.619Z,6.90
2023-02-23T09:04:47.785Z,3.90
2023-02-23T09:08:09.831Z,3.70
2023-02-23T09:11:31.731Z,4.50
2023-02-23T09:14:53.933Z,4.10
2023-02-23T09:18:17.483Z,3.10
2023-02-23T09:21:39.317Z,4.00
2023-02-23T09:25:01.242Z,4.80
2023-02-23T09:28:23.090Z,2.90
2023-02-23T09:31:45.106Z,4.40
2023-02-23T09:35:07.331Z,3.00
2023-02-23T09:38:36.529Z,4.60
2023-02-23T09:42:19.687Z,4.10
2023-02-23T09:45:42.941Z,3.60
2023-02-23T09:49:12.408Z,5.90
2023-02-23T09:52:41.623Z,3.60
2023-02-23T09:56:19.036Z,3.80
2023-02-23T09:59:40.939Z,5.40
2023-02-23T10:03:08.807Z,3.70
2023-02-23T10:06:30.676Z,3.70
2023-02-23T10:10:04.383Z,5.10
2023-02-23T10:13:54.201Z,3.30
2023-02-23T10:17:30.398Z,3.30
2023-02-23T10:21:01.294Z,2.80
2023-02-23T10:24:37.092Z,3.00
2023-02-23T10:28:00.136Z,4.10
2023-02-23T10:31:41.386Z,3.30
2023-02-23T10:35:11.214Z,4.40
2023-02-23T10:38:32.964Z,3.50
2023-02-23T10:41:55.368Z,3.60
2023-02-23T10:45:23.150Z,3.50
2023-02-23T10:48:45.547Z,3.90
2023-02-23T10:52:13.700Z,3.30
2023-02-23T10:55:36.046Z,3.50
2023-02-23T10:58:58.915Z,3.00
2023-02-23T11:02:24.608Z,6.70
2023-02-23T11:05:50.629Z,3.60
2023-02-23T11:09:44.548Z,4.40
2023-02-23T11:13:23.272Z,3.80
2023-02-23T11:16:45.229Z,3.50
2023-02-23T11:20:37.107Z,3.60
2023-02-23T11:24:01.860Z,4.60
2023-02-23T11:27:26.115Z,4.70
2023-02-23T11:30:49.233Z,3.80
2023-02-23T11:34:21.961Z,3.30
2023-02-23T11:37:43.861Z,3.60
2023-02-23T11:41:24.291Z,5.80
2023-02-23T11:45:03.283Z,4.00
2023-02-23T11:48:32.611Z,5.60
2023-02-23T11:51:54.873Z,3.90
2023-02-23T11:55:19.765Z,9.70
2023-02-23T11:58:47.308Z,4.00
2023-02-23T12:02:30.202Z,5.70
2023-02-23T12:05:57.867Z,6.30
2023-02-23T12:09:30.804Z,6.00
2023-02-23T12:12:58.783Z,9.10
2023-02-23T12:16:28.721Z,9.30
2023-02-23T12:20:11.262Z,5.40
2023-02-23T12:23:34.961Z,5.60
2023-02-23T12:27:06.339Z,7.30
2023-02-23T12:30:37.322Z,6.00
2023-02-23T12:34:07.666Z,5.70
2023-02-23T12:37:37.189Z,9.40
2023-02-23T12:41:08.019Z,10.70
2023-02-23T12:44:40.666Z,11.30
2023-02-23T12:48:40.702Z,5.20
2023-02-23T12:52:13.737Z,4.90
2023-02-23T12:56:14.460Z,5.40
2023-02-23T12:59:52.176Z,5.40
2023-02-23T13:03:36.730Z,4.90
2023-02-23T13:07:38.373Z,8.00
2023-02-23T13:11:09.148Z,4.10
2023-02-23T13:14:49.066Z,5.30
2023-02-23T13:18:15.784Z,3.40
2023-02-23T13:21:43.573Z,6.30
2023-02-23T13:25:20.427Z,5.40
2023-02-23T13:28:56.709Z,5.90
2023-02-23T13:32:21.993Z,7.90
2023-02-23T13:35:44.225Z,6.70
2023-02-23T13:39:30.515Z,3.90
2023-02-23T13:42:59.052Z,4.10
2023-02-23T13:46:48.449Z,3.70
2023-02-23T13:50:22.598Z,5.30
2023-02-23T13:53:47.948Z,3.80
2023-02-23T13:57:18.313Z,3.30
2023-02-23T14:00:40.134Z,3.90
2023-02-23T14:04:12.827Z,3.20
2023-02-23T14:07:40.220Z,5.20
2023-02-23T14:11:02.943Z,5.90
2023-02-23T14:14:30.950Z,5.70
2023-02-23T14:18:00.946Z,5.30
2023-02-23T14:21:29.412Z,4.60
2023-02-23T14:25:29.025Z,6.80
2023-02-23T14:29:29.649Z,7.30
2023-02-23T14:32:55.248Z,4.10
2023-02-23T14:36:26.856Z,7.90
2023-02-23T14:39:50.768Z,4.90
2023-02-23T14:43:41.648Z,8.30
2023-02-23T14:47:27.784Z,6.10
2023-02-23T14:50:49.818Z,6.40
2023-02-23T14:54:16.705Z,11.00
2023-02-23T14:57:41.073Z,7.50
2023-02-23T15:01:02.967Z,5.40
2023-02-23T15:04:27.684Z,4.70
2023-02-23T15:07:51.986Z,8.90
2023-02-23T15:11:14.734Z,6.80
2023-02-23T15:14:39.002Z,6.80
2023-02-23T15:18:03.337Z,4.50
2023-02-23T15:21:25.250Z,4.50
2023-02-23T15:24:50.238Z,5.50
2023-02-23T15:28:23.488Z,5.20
2023-02-23T15:31:55.302Z,5.60
2023-02-23T15:35:17.590Z,5.00
2023-02-23T15:38:50.945Z,5.50
2023-02-23T15:42:21.495Z,9.20
2023-02-23T15:45:50.330Z,5.40
2023-02-23T15:49:14.695Z,6.30
2023-02-23T15:52:45.312Z,5.60
2023-02-23T15:56:20.824Z,5.40
2023-02-23T15:59:49.225Z,6.80
2023-02-23T16:03:31.317Z,6.60
2023-02-23T16:07:07.270Z,8.20
2023-02-23T16:10:29.570Z,6.10
2023-02-23T16:14:24.140Z,10.10
2023-02-23T16:17:48.233Z,8.40
2023-02-23T16:21:44.586Z,7.00
2023-02-23T16:25:11.375Z,14.40
2023-02-23T16:28:34.304Z,11.60
2023-02-23T16:32:00.633Z,8.40
2023-02-23T16:35:22.769Z,7.80
2023-02-23T16:42:43.584Z,7.40
2023-02-23T16:46:05.653Z,10.30
2023-02-23T16:49:29.966Z,6.40
2023-02-23T16:52:55.273Z,6.00
2023-02-23T16:56:21.036Z,9.40
2023-02-23T16:59:43.133Z,8.90
2023-02-23T17:03:15.610Z,10.80
2023-02-23T17:06:38.334Z,7.90
2023-02-23T17:10:00.444Z,8.10
2023-02-23T17:13:24.706Z,9.50
2023-02-23T17:16:46.677Z,10.10
2023-02-23T17:20:15.662Z,8.50
2023-02-23T17:23:51.269Z,11.40
2023-02-23T17:27:13.198Z,14.00
2023-02-23T17:30:36.842Z,8.70
2023-02-23T17:33:59.328Z,16.40
2023-02-23T17:37:37.581Z,8.70
2023-02-23T17:41:03.826Z,17.40
2023-02-23T17:44:34.280Z,8.60
2023-02-23T17:48:05.010Z,10.00
2023-02-23T17:51:26.889Z,12.30
2023-02-23T17:54:48.889Z,7.90
2023-02-23T17:58:10.899Z,10.50
2023-02-23T18:01:32.856Z,12.20
2023-02-23T18:04:54.989Z,13.30
2023-02-23T18:08:20.266Z,14.30
2023-02-23T18:11:42.248Z,13.70
2023-02-23T18:15:04.610Z,16.80
2023-02-23T18:18:26.898Z,16.90
2023-02-23T18:21:48.741Z,18.30
2023-02-23T18:25:20.902Z,12.70
2023-02-23T18:28:44.864Z,12.30
2023-02-23T18:32:10.800Z,13.70
2023-02-23T18:35:38.417Z,16.60
2023-02-23T18:39:01.274Z,11.10
2023-02-23T18:42:23.224Z,13.00
2023-02-23T18:45:45.068Z,14.20
2023-02-23T18:49:07.262Z,20.20
2023-02-23T18:52:29.259Z,13.00
2023-02-23T18:55:51.138Z,16.30
2023-02-23T18:59:13.462Z,16.50
2023-02-23T19:02:35.320Z,20.90
2023-02-23T19:06:12.757Z,15.70
2023-02-23T19:09:40.967Z,14.30
2023-02-23T19:13:02.871Z,13.10
2023-02-23T19:16:31.734Z,19.00
2023-02-23T19:20:00.938Z,19.30
2023-02-23T19:23:22.996Z,14.60
2023-02-23T19:26:54.442Z,14.10
2023-02-23T19:30:16.513Z,14.70
2023-02-23T19:33:38.584Z,11.70
2023-02-23T19:37:00.428Z,19.60
2023-02-23T19:40:24.049Z,15.50
2023-02-23T19:43:45.957Z,15.10
2023-02-23T19:47:09.632Z,13.70
2023-02-23T19:50:35.915Z,16.00
2023-02-23T19:53:59.214Z,14.20
2023-02-23T19:57:21.262Z,15.80
2023-02-23T20:00:43.192Z,13.40
2023-02-23T20:04:10.891Z,13.20
2023-02-23T20:07:32.917Z,15.90
2023-02-23T20:11:06.113Z,17.80
2023-02-23T20:14:32.684Z,12.50
2023-02-23T20:17:54.608Z,10.90
2023-02-23T20:21:21.510Z,12.00
2023-02-23T20:24:49.021Z,11.30
2023-02-23T20:28:11.025Z,13.70
2023-02-23T20:31:35.469Z,20.00
2023-02-23T20:35:03.522Z,15.70
2023-02-23T20:38:25.495Z,17.20
2023-02-23T20:42:04.201Z,16.80
2023-02-23T20:45:29.747Z,14.40
2023-02-23T20:48:56.834Z,14.20
2023-02-23T20:52:18.824Z,20.30
2023-02-23T20:55:47.372Z,15.70
2023-02-23T20:59:11.340Z,17.80
2023-02-23T21:02:33.186Z,13.10
2023-02-23T21:05:55.053Z,15.70
2023-02-23T21:09:23.007Z,21.10
2023-02-23T21:12:47.205Z,22.40
2023-02-23T21:16:32.387Z,17.50
2023-02-23T21:19:54.481Z,16.20
2023-02-23T21:23:17.931Z,15.70
2023-02-23T21:26:40.013Z,17.40
2023-02-23T21:30:02.589Z,17.20
2023-02-23T21:33:26.597Z,16.90
2023-02-23T21:36:51.424Z,17.10
2023-02-23T21:40:19.336Z,13.80
2023-02-23T21:43:43.055Z,18.80
2023-02-23T21:47:07.195Z,17.70
2023-02-23T21:50:32.109Z,15.20
2023-02-23T21:53:58.055Z,23.80
2023-02-23T21:57:22.980Z,19.80
2023-02-23T22:00:46.094Z,18.00
2023-02-23T22:04:10.761Z,19.60
2023-02-23T22:07:32.785Z,19.20
2023-02-23T22:10:54.633Z,22.60
2023-02-23T22:14:18.296Z,21.30
2023-02-23T22:17:40.353Z,18.60
2023-02-23T22:21:05.547Z,23.80
2023-02-23T22:24:27.721Z,21.60
2023-02-23T22:27:49.572Z,23.10
2023-02-23T22:31:13.711Z,20.30
2023-02-23T22:34:35.834Z,22.50
2023-02-23T22:38:00.437Z,21.70
2023-02-23T22:41:22.417Z,21.00
2023-02-23T22:44:44.487Z,23.80
2023-02-23T22:48:09.482Z,24.30
2023-02-23T22:51:35.112Z,22.30
2023-02-23T22:55:29.346Z,25.80
2023-02-23T22:58:55.941Z,21.90
2023-02-23T23:02:17.908Z,25.20
2023-02-23T23:05:39.716Z,23.20
2023-02-23T23:09:01.546Z,27.60
2023-02-23T23:12:27.921Z,28.80
2023-02-23T23:15:51.738Z,29.30
2023-02-23T23:19:24.038Z,26.10
2023-02-23T23:22:47.196Z,28.10
2023-02-23T23:26:14.881Z,29.90
2023-02-23T23:29:42.023Z,27.00
2023-02-23T23:33:03.954Z,23.80
2023-02-23T23:36:32.203Z,23.90
2023-02-23T23:39:59.396Z,29.20
2023-02-23T23:43:22.971Z,25.00
2023-02-23T23:46:45.857Z,25.30
2023-02-23T23:50:10.927Z,30.40
2023-02-23T23:54:26.210Z,26.50
2023-02-23T23:57:50.133Z,27.60
